createdAt,value
2023-02-11T00:01:53.732Z,44.38
2023-02-11T00:04:16.382Z,47.83
2023-02-11T00:06:39.191Z,45.88
2023-02-11T00:09:02.482Z,46.60
2023-02-11T00:11:30.357Z,49.47
2023-02-11T00:13:52.964Z,50.70
2023-02-11T00:16:19.319Z,53.67
2023-02-11T00:18:42.159Z,53.70
2023-02-11T00:21:18.815Z,51.70
2023-02-11T00:23:42.232Z,53.78
2023-02-11T00:26:11.896Z,50.13
2023-02-11T00:28:35.943Z,50.85
2023-02-11T00:30:59.290Z,54.28
2023-02-11T00:33:22.008Z,56.47
2023-02-11T00:35:44.627Z,52.75
2023-02-11T00:38:07.972Z,53.03
2023-02-11T00:40:30.741Z,55.72
2023-02-11T00:42:53.362Z,60.88
2023-02-11T00:45:15.970Z,57.20
2023-02-11T00:47:39.018Z,56.70
2023-02-11T00:50:04.668Z,64.55
2023-02-11T00:52:27.519Z,59.95
2023-02-11T00:54:50.104Z,60.40
2023-02-11T00:57:12.764Z,58.07
2023-02-11T00:59:35.489Z,64.13
2023-02-11T01:01:58.222Z,60.50
2023-02-11T01:04:20.988Z,62.15
2023-02-11T01:06:43.560Z,66.82
2023-02-11T01:09:06.271Z,68.17
2023-02-11T01:11:30.982Z,64.80
2023-02-11T01:13:53.608Z,64.10
2023-02-11T01:16:18.290Z,61.75
2023-02-11T01:18:42.813Z,71.85
2023-02-11T01:21:06.000Z,59.97
2023-02-11T01:23:28.567Z,62.75
2023-02-11T01:25:51.543Z,66.07
2023-02-11T01:28:23.251Z,63.30
2023-02-11T01:30:46.976Z,69.63
2023-02-11T01:33:09.607Z,67.80
2023-02-11T01:35:33.279Z,58.53
2023-02-11T01:37:55.915Z,64.13
2023-02-11T01:40:20.396Z,66.10
2023-02-11T01:42:44.315Z,66.38
2023-02-11T01:45:44.586Z,69.27
2023-02-11T01:48:09.011Z,64.45
2023-02-11T01:50:32.083Z,64.95
2023-02-11T01:53:14.981Z,71.63
2023-02-11T01:55:58.441Z,67.43
2023-02-11T01:58:22.478Z,68.47
2023-02-11T02:00:45.674Z,66.05
2023-02-11T02:03:13.205Z,67.38
2023-02-11T02:05:56.015Z,70.85
2023-02-11T02:08:40.636Z,70.00
2023-02-11T02:11:03.844Z,71.07
2023-02-11T02:13:28.086Z,69.55
2023-02-11T02:15:58.131Z,68.35
2023-02-11T02:18:51.863Z,63.95
2023-02-11T02:21:51.856Z,65.05
2023-02-11T02:24:35.034Z,64.53
2023-02-11T02:27:13.772Z,64.38
2023-02-11T02:29:57.199Z,65.35
2023-02-11T02:32:38.513Z,66.60
2023-02-11T02:35:10.347Z,65.88
2023-02-11T02:37:45.621Z,67.77
2023-02-11T02:40:15.807Z,62.38
2023-02-11T02:42:40.491Z,67.20
2023-02-11T02:45:03.572Z,56.47
2023-02-11T02:47:26.815Z,60.90
2023-02-11T02:49:49.535Z,65.23
2023-02-11T02:52:28.936Z,59.10
2023-02-11T02:54:51.497Z,56.08
2023-02-11T02:57:38.558Z,63.92
2023-02-11T03:00:07.010Z,57.72
2023-02-11T03:02:36.339Z,67.07
2023-02-11T03:05:27.719Z,65.35
2023-02-11T03:08:05.825Z,72.53
2023-02-11T03:10:33.254Z,70.40
2023-02-11T03:12:57.098Z,70.45
2023-02-11T03:15:22.576Z,63.63
2023-02-11T03:17:49.414Z,60.20
2023-02-11T03:20:14.729Z,62.80
2023-02-11T03:22:48.244Z,66.38
2023-02-11T03:25:11.088Z,60.53
2023-02-11T03:27:42.295Z,55.37
2023-02-11T03:30:06.814Z,53.22
2023-02-11T03:32:35.557Z,52.33
2023-02-11T03:35:11.891Z,52.30
2023-02-11T03:37:45.390Z,51.88
2023-02-11T03:40:11.916Z,51.53
2023-02-11T03:42:44.094Z,50.60
2023-02-11T03:45:11.081Z,52.72
2023-02-11T03:47:37.118Z,55.45
2023-02-11T03:50:02.182Z,56.05
2023-02-11T03:52:26.351Z,53.27
2023-02-11T03:54:55.904Z,53.05
2023-02-11T03:57:18.489Z,56.80
2023-02-11T03:59:58.599Z,51.15
2023-02-11T04:02:24.167Z,52.25
2023-02-11T04:04:47.255Z,59.20
2023-02-11T04:07:12.009Z,55.78
2023-02-11T04:09:35.376Z,54.50
2023-02-11T04:11:58.215Z,49.95
2023-02-11T04:14:20.789Z,56.38
2023-02-11T04:16:43.420Z,49.37
2023-02-11T04:19:06.242Z,58.30
2023-02-11T04:21:28.800Z,54.17
2023-02-11T04:23:51.427Z,53.72
2023-02-11T04:26:14.054Z,48.47
2023-02-11T04:28:36.767Z,53.20
2023-02-11T04:30:59.417Z,51.83
2023-02-11T04:33:23.238Z,51.95
2023-02-11T04:35:46.042Z,48.42
2023-02-11T04:38:08.595Z,50.67
2023-02-11T04:40:31.692Z,48.53
2023-02-11T04:42:54.284Z,53.65
2023-02-11T04:45:17.165Z,51.70
2023-02-11T04:47:39.756Z,47.80
2023-02-11T04:50:02.497Z,54.53
2023-02-11T04:52:25.380Z,52.80
2023-02-11T04:54:48.021Z,52.60
2023-02-11T04:57:10.630Z,50.20
2023-02-11T04:59:33.387Z,50.85
2023-02-11T05:01:55.981Z,55.97
2023-02-11T05:04:18.849Z,49.70
2023-02-11T05:06:41.546Z,45.42
2023-02-11T05:09:04.166Z,51.38
2023-02-11T05:11:26.824Z,50.05
2023-02-11T05:13:49.600Z,49.05
2023-02-11T05:16:13.094Z,54.17
2023-02-11T05:18:38.399Z,52.92
2023-02-11T05:21:06.529Z,47.40
2023-02-11T05:23:29.164Z,49.67
2023-02-11T05:25:51.959Z,50.85
2023-02-11T05:28:15.490Z,53.73
2023-02-11T05:30:38.197Z,52.85
2023-02-11T05:33:00.982Z,59.17
2023-02-11T05:35:23.993Z,52.15
2023-02-11T05:37:46.625Z,47.00
2023-02-11T05:40:09.754Z,48.13
2023-02-11T05:42:32.396Z,46.28
2023-02-11T05:44:54.935Z,50.17
2023-02-11T05:47:17.864Z,45.40
2023-02-11T05:49:40.511Z,50.40
2023-02-11T05:52:03.500Z,49.97
2023-02-11T05:54:26.316Z,52.42
2023-02-11T05:56:48.967Z,53.80
2023-02-11T05:59:14.227Z,52.55
2023-02-11T06:01:36.971Z,58.38
2023-02-11T06:03:59.641Z,48.13
2023-02-11T06:06:22.320Z,54.42
2023-02-11T06:08:44.890Z,53.70
2023-02-11T06:11:07.531Z,50.22
2023-02-11T06:13:29.979Z,55.15
2023-02-11T06:15:57.382Z,52.77
2023-02-11T06:18:19.945Z,52.15
2023-02-11T06:20:42.566Z,51.72
2023-02-11T06:23:05.275Z,54.78
2023-02-11T06:25:27.866Z,51.05
2023-02-11T06:27:50.613Z,53.27
2023-02-11T06:30:14.011Z,47.28
2023-02-11T06:32:44.308Z,55.00
2023-02-11T06:35:09.985Z,51.13
2023-02-11T06:37:35.218Z,57.45
2023-02-11T06:39:57.858Z,56.17
2023-02-11T06:42:20.557Z,51.47
2023-02-11T06:44:43.230Z,55.72
2023-02-11T06:47:05.815Z,53.10
2023-02-11T06:49:29.116Z,50.90
2023-02-11T06:51:51.676Z,48.17
2023-02-11T06:54:14.890Z,57.50
2023-02-11T06:56:40.417Z,64.00
2023-02-11T06:59:03.559Z,64.90
2023-02-11T07:01:27.371Z,65.03
2023-02-11T07:03:51.044Z,65.97
2023-02-11T07:06:16.831Z,65.13
2023-02-11T07:08:40.613Z,66.63
2023-02-11T07:11:14.407Z,64.45
2023-02-11T07:13:37.544Z,64.03
2023-02-11T07:16:05.322Z,56.83
2023-02-11T07:18:28.137Z,50.95
2023-02-11T07:20:50.758Z,50.55
2023-02-11T07:23:13.442Z,50.92
2023-02-11T07:25:36.550Z,44.88
2023-02-11T07:27:59.539Z,47.07
2023-02-11T07:30:22.357Z,44.83
2023-02-11T07:32:44.960Z,41.17
2023-02-11T07:35:07.786Z,47.53
2023-02-11T07:37:30.458Z,48.80
2023-02-11T07:39:53.045Z,50.60
2023-02-11T07:42:15.786Z,47.60
2023-02-11T07:44:38.599Z,49.50
2023-02-11T07:47:01.453Z,53.80
2023-02-11T07:49:24.368Z,56.95
2023-02-11T07:51:49.121Z,53.77
2023-02-11T07:54:12.403Z,56.03
2023-02-11T07:56:35.145Z,52.78
2023-02-11T07:59:01.700Z,53.83
2023-02-11T08:01:28.474Z,58.03
2023-02-11T08:03:51.762Z,54.27
2023-02-11T08:06:16.248Z,51.65
2023-02-11T08:08:39.616Z,55.67
2023-02-11T08:11:28.721Z,54.80
2023-02-11T08:13:52.467Z,56.50
2023-02-11T08:16:22.427Z,55.03
2023-02-11T08:18:45.139Z,52.75
2023-02-11T08:21:10.028Z,54.47
2023-02-11T08:23:32.792Z,54.40
2023-02-11T08:25:55.334Z,52.53
2023-02-11T08:28:18.021Z,54.03
2023-02-11T08:30:40.790Z,55.95
2023-02-11T08:33:03.769Z,52.35
2023-02-11T08:35:26.326Z,50.05
2023-02-11T08:37:49.058Z,51.65
2023-02-11T08:40:11.882Z,50.97
2023-02-11T08:42:34.580Z,50.63
2023-02-11T08:44:57.204Z,46.22
2023-02-11T08:47:19.849Z,46.60
2023-02-11T08:49:43.089Z,47.28
2023-02-11T08:52:06.756Z,48.97
2023-02-11T08:54:30.076Z,50.55
2023-02-11T08:56:52.820Z,48.65
2023-02-11T08:59:17.194Z,52.40
2023-02-11T09:01:40.133Z,50.35
2023-02-11T09:04:02.784Z,49.63
2023-02-11T09:06:26.571Z,45.15
2023-02-11T09:08:51.676Z,49.05
2023-02-11T09:11:14.439Z,49.95
2023-02-11T09:13:37.695Z,50.08
2023-02-11T09:16:02.296Z,49.60
2023-02-11T09:18:25.518Z,45.72
2023-02-11T09:20:48.304Z,53.75
2023-02-11T09:23:11.306Z,56.00
2023-02-11T09:25:33.936Z,52.35
2023-02-11T09:27:56.600Z,52.00
2023-02-11T09:30:19.865Z,50.35
2023-02-11T09:32:42.986Z,52.40
2023-02-11T09:35:05.942Z,51.47
2023-02-11T09:37:28.524Z,51.47
2023-02-11T09:39:51.492Z,55.40
2023-02-11T09:42:38.591Z,47.22
2023-02-11T09:45:02.681Z,50.97
2023-02-11T09:47:30.477Z,46.72
2023-02-11T09:50:10.686Z,49.42
2023-02-11T09:52:42.402Z,51.20
2023-02-11T09:55:27.541Z,50.47
2023-02-11T09:57:50.352Z,46.10
2023-02-11T10:00:40.138Z,47.50
2023-02-11T10:03:41.846Z,45.78
2023-02-11T10:06:07.241Z,47.70
2023-02-11T10:09:03.966Z,49.55
2023-02-11T10:11:52.454Z,48.95
2023-02-11T10:14:54.828Z,49.55
2023-02-11T10:17:44.146Z,47.17
2023-02-11T10:20:19.785Z,48.83
2023-02-11T10:23:14.652Z,43.90
2023-02-11T10:25:39.882Z,44.17
2023-02-11T10:28:31.220Z,41.13
2023-02-11T10:30:59.863Z,42.38
2023-02-11T10:33:34.491Z,43.00
2023-02-11T10:35:57.236Z,47.25
2023-02-11T10:38:20.111Z,42.17
2023-02-11T10:40:43.093Z,41.53
2023-02-11T10:43:11.124Z,43.75
2023-02-11T10:45:38.486Z,43.80
2023-02-11T10:48:04.239Z,39.40
2023-02-11T10:50:29.780Z,45.80
2023-02-11T10:53:21.223Z,47.00
2023-02-11T10:55:51.171Z,43.22
2023-02-11T10:58:24.051Z,40.87
2023-02-11T11:00:52.979Z,39.05
2023-02-11T11:03:21.993Z,47.50
2023-02-11T11:05:51.023Z,44.15
2023-02-11T11:08:13.704Z,44.05
2023-02-11T11:10:47.005Z,41.53
2023-02-11T11:13:34.393Z,41.92
2023-02-11T11:16:12.144Z,42.45
2023-02-11T11:18:35.116Z,43.65
2023-02-11T11:21:01.330Z,39.42
2023-02-11T11:23:25.065Z,43.00
2023-02-11T11:26:25.910Z,42.22
2023-02-11T11:29:02.621Z,40.63
2023-02-11T11:31:28.559Z,42.97
2023-02-11T11:33:53.255Z,42.30
2023-02-11T11:36:21.967Z,42.93
2023-02-11T11:38:50.995Z,39.90
2023-02-11T11:41:16.313Z,39.63
2023-02-11T11:43:38.853Z,38.72
2023-02-11T11:46:02.960Z,40.15
2023-02-11T11:48:37.652Z,39.57
2023-02-11T11:51:04.234Z,43.60
2023-02-11T11:53:36.313Z,44.13
2023-02-11T11:56:22.846Z,39.70
2023-02-11T11:58:45.874Z,40.45
2023-02-11T12:01:15.733Z,43.67
2023-02-11T12:04:15.892Z,40.70
2023-02-11T12:06:47.247Z,38.92
2023-02-11T12:09:31.093Z,37.53
2023-02-11T12:12:15.353Z,34.28
2023-02-11T12:14:49.851Z,35.27
2023-02-11T12:17:57.853Z,42.10
2023-02-11T12:20:39.983Z,38.13
2023-02-11T12:23:14.863Z,39.28
2023-02-11T12:25:57.778Z,36.17
2023-02-11T12:28:37.466Z,33.87
2023-02-11T12:31:18.553Z,39.08
2023-02-11T12:34:01.733Z,38.40
2023-02-11T12:36:36.656Z,36.15
2023-02-11T12:42:48.813Z,37.30
2023-02-11T12:45:11.321Z,34.15
2023-02-11T12:47:59.448Z,36.67
2023-02-11T12:50:43.162Z,31.35
2023-02-11T12:53:05.706Z,35.80
2023-02-11T12:55:37.238Z,31.80
2023-02-11T12:58:01.862Z,35.72
2023-02-11T13:00:43.711Z,34.55
2023-02-11T13:03:17.041Z,33.20
2023-02-11T13:05:54.232Z,34.08
2023-02-11T13:08:26.059Z,31.03
2023-02-11T13:10:54.781Z,31.88
2023-02-11T13:13:26.209Z,32.45
2023-02-11T13:15:56.135Z,32.05
2023-02-11T13:18:49.589Z,33.22
2023-02-11T13:21:15.189Z,33.70
2023-02-11T13:23:59.982Z,31.50
2023-02-11T13:26:38.055Z,33.45
2023-02-11T13:29:18.959Z,32.90
2023-02-11T13:31:41.880Z,28.67
2023-02-11T13:34:23.339Z,32.17
2023-02-11T13:36:54.947Z,29.35
2023-02-11T13:39:21.693Z,28.45
2023-02-11T13:41:52.210Z,28.77
2023-02-11T13:44:19.345Z,31.15
2023-02-11T13:47:05.010Z,32.77
2023-02-11T13:49:32.345Z,31.90
2023-02-11T13:51:56.752Z,32.92
2023-02-11T13:54:40.055Z,33.00
2023-02-11T13:57:21.082Z,32.15
2023-02-11T13:59:49.936Z,31.30
2023-02-11T14:02:47.136Z,30.23
2023-02-11T14:05:34.568Z,28.17
2023-02-11T14:08:28.116Z,32.22
2023-02-11T14:10:54.192Z,29.48
2023-02-11T14:13:33.078Z,30.40
2023-02-11T14:16:10.879Z,30.40
2023-02-11T14:18:45.790Z,33.17
2023-02-11T14:21:17.143Z,33.30
2023-02-11T14:23:41.020Z,32.40
2023-02-11T14:26:21.037Z,34.50
2023-02-11T14:28:46.879Z,32.55
2023-02-11T14:31:18.466Z,33.28
2023-02-11T14:34:04.277Z,31.75
2023-02-11T14:36:46.372Z,33.33
2023-02-11T14:39:25.191Z,34.80
2023-02-11T14:41:51.178Z,33.70
2023-02-11T14:44:28.338Z,32.58
2023-02-11T14:46:55.164Z,31.52
2023-02-11T14:49:23.687Z,33.05
2023-02-11T14:51:47.414Z,31.37
2023-02-11T14:54:18.218Z,32.83
2023-02-11T14:56:42.364Z,33.38
2023-02-11T14:59:17.687Z,31.63
2023-02-11T15:01:42.441Z,34.55
2023-02-11T15:04:21.603Z,32.37
2023-02-11T15:06:49.687Z,35.72
2023-02-11T15:09:26.913Z,34.08
2023-02-11T15:11:52.087Z,35.25
2023-02-11T15:14:17.415Z,36.95
2023-02-11T15:16:43.561Z,35.43
2023-02-11T15:19:07.854Z,32.20
2023-02-11T15:21:34.800Z,31.20
2023-02-11T15:24:01.050Z,29.73
2023-02-11T15:26:24.045Z,35.03
2023-02-11T15:28:52.199Z,33.73
2023-02-11T15:31:16.799Z,35.33
2023-02-11T15:33:39.761Z,34.70
2023-02-11T15:36:03.008Z,36.15
2023-02-11T15:38:25.890Z,38.72
2023-02-11T15:40:58.484Z,36.30
2023-02-11T15:43:21.413Z,36.63
2023-02-11T15:46:02.576Z,41.83
2023-02-11T15:48:34.244Z,37.10
2023-02-11T15:51:05.111Z,38.47
2023-02-11T15:53:40.509Z,39.87
2023-02-11T15:56:20.213Z,38.67
2023-02-11T15:58:47.588Z,40.15
2023-02-11T16:01:11.426Z,41.90
2023-02-11T16:03:34.629Z,40.47
2023-02-11T16:05:57.286Z,42.50
2023-02-11T16:08:22.203Z,35.97
2023-02-11T16:10:58.951Z,41.80
2023-02-11T16:13:21.596Z,38.25
2023-02-11T16:16:02.526Z,41.17
2023-02-11T16:18:39.286Z,41.17
2023-02-11T16:21:04.214Z,44.65
2023-02-11T16:23:31.516Z,44.95
2023-02-11T16:26:08.983Z,43.35
2023-02-11T16:28:32.868Z,41.70
2023-02-11T16:30:57.403Z,46.43
2023-02-11T16:33:20.795Z,42.83
2023-02-11T16:35:47.595Z,44.65
2023-02-11T16:38:10.722Z,48.38
2023-02-11T16:40:33.605Z,46.78
2023-02-11T16:42:56.540Z,41.73
2023-02-11T16:45:19.633Z,44.83
2023-02-11T16:47:43.379Z,44.65
2023-02-11T16:50:09.328Z,41.13
2023-02-11T16:52:32.545Z,40.72
2023-02-11T16:54:55.410Z,46.77
2023-02-11T16:57:21.458Z,42.85
2023-02-11T16:59:45.290Z,42.72
2023-02-11T17:02:24.069Z,45.78
2023-02-11T17:04:47.088Z,44.08
2023-02-11T17:07:09.940Z,42.33
2023-02-11T17:09:33.208Z,44.83
2023-02-11T17:11:56.105Z,45.88
2023-02-11T17:14:19.851Z,46.33
2023-02-11T17:16:43.238Z,47.53
2023-02-11T17:19:06.243Z,41.07
2023-02-11T17:21:31.499Z,47.83
2023-02-11T17:23:54.367Z,45.47
2023-02-11T17:26:17.181Z,47.47
2023-02-11T17:28:40.300Z,46.38
2023-02-11T17:31:07.503Z,43.77
2023-02-11T17:33:30.091Z,43.15
2023-02-11T17:35:53.189Z,53.40
2023-02-11T17:38:16.617Z,50.30
2023-02-11T17:40:39.412Z,48.60
2023-02-11T17:43:02.207Z,55.77
2023-02-11T17:45:24.800Z,51.67
2023-02-11T17:47:49.233Z,48.20
2023-02-11T17:50:12.132Z,46.25
2023-02-11T17:52:36.705Z,49.38
2023-02-11T17:54:59.516Z,50.57
2023-02-11T17:57:22.568Z,47.65
2023-02-11T17:59:45.689Z,50.78
2023-02-11T18:02:12.450Z,51.42
2023-02-11T18:04:36.341Z,53.28
2023-02-11T18:06:59.369Z,51.47
2023-02-11T18:09:22.314Z,53.13
2023-02-11T18:11:45.850Z,52.88
2023-02-11T18:14:10.170Z,50.38
2023-02-11T18:16:36.385Z,51.17
2023-02-11T18:18:59.095Z,55.00
2023-02-11T18:21:22.956Z,52.33
2023-02-11T18:23:46.374Z,52.42
2023-02-11T18:26:11.031Z,53.33
2023-02-11T18:28:34.095Z,51.78
2023-02-11T18:31:00.806Z,51.87
2023-02-11T18:33:23.987Z,50.85
2023-02-11T18:35:49.197Z,55.35
2023-02-11T18:38:12.297Z,49.33
2023-02-11T18:40:35.612Z,54.05
2023-02-11T18:42:58.607Z,54.43
2023-02-11T18:45:21.259Z,47.97
2023-02-11T18:47:44.265Z,54.58
2023-02-11T18:50:09.044Z,53.22
2023-02-11T18:52:33.199Z,50.53
2023-02-11T18:54:56.085Z,51.90
2023-02-11T18:57:18.963Z,51.97
2023-02-11T18:59:42.950Z,52.75
2023-02-11T19:02:05.602Z,53.70
2023-02-11T19:04:28.458Z,47.33
2023-02-11T19:06:52.222Z,48.43
2023-02-11T19:09:17.893Z,50.15
2023-02-11T19:11:46.943Z,42.78
2023-02-11T19:14:10.466Z,43.35
2023-02-11T19:16:33.349Z,47.97
2023-02-11T19:18:57.176Z,48.70
2023-02-11T19:21:20.717Z,46.95
2023-02-11T19:23:46.695Z,44.65
2023-02-11T19:26:09.574Z,46.28
2023-02-11T19:28:33.597Z,48.95
2023-02-11T19:30:56.646Z,44.80
2023-02-11T19:33:19.693Z,42.63
2023-02-11T19:35:42.545Z,40.83
2023-02-11T19:38:05.725Z,43.50
2023-02-11T19:40:28.774Z,38.53
2023-02-11T19:42:52.171Z,38.67
2023-02-11T19:45:15.172Z,38.85
2023-02-11T19:47:38.189Z,36.70
2023-02-11T19:50:01.227Z,37.22
2023-02-11T19:52:25.841Z,36.17
2023-02-11T19:54:48.772Z,34.27
2023-02-11T19:57:11.705Z,33.80
2023-02-11T19:59:34.554Z,32.47
2023-02-11T20:01:57.749Z,34.13
2023-02-11T20:04:20.979Z,37.97
2023-02-11T20:06:45.884Z,34.50
2023-02-11T20:09:12.651Z,39.78
2023-02-11T20:11:36.872Z,38.65
2023-02-11T20:14:00.618Z,35.58
2023-02-11T20:16:36.813Z,37.25
2023-02-11T20:19:07.642Z,35.57
2023-02-11T20:21:32.134Z,32.55
2023-02-11T20:23:55.610Z,35.75
2023-02-11T20:26:24.531Z,31.73
2023-02-11T20:28:49.469Z,31.95
2023-02-11T20:31:13.592Z,34.83
2023-02-11T20:33:37.025Z,29.80
2023-02-11T20:36:05.993Z,31.58
2023-02-11T20:38:28.838Z,30.00
2023-02-11T20:40:52.502Z,29.38
2023-02-11T20:43:15.996Z,28.00
2023-02-11T20:45:39.171Z,27.80
2023-02-11T20:48:02.294Z,30.48
2023-02-11T20:50:25.682Z,27.23
2023-02-11T20:52:48.717Z,28.55
2023-02-11T20:55:12.072Z,30.43
2023-02-11T20:57:35.188Z,34.28
2023-02-11T20:59:58.159Z,28.35
2023-02-11T21:02:24.632Z,31.48
2023-02-11T21:04:48.025Z,30.10
2023-02-11T21:07:11.113Z,28.27
2023-02-11T21:09:35.166Z,30.58
2023-02-11T21:11:58.237Z,32.17
2023-02-11T21:14:22.984Z,30.50
2023-02-11T21:16:46.505Z,34.40
2023-02-11T21:19:09.598Z,28.37
2023-02-11T21:21:32.520Z,32.05
2023-02-11T21:23:56.189Z,35.60
2023-02-11T21:26:19.399Z,29.52
2023-02-11T21:28:42.336Z,31.70
2023-02-11T21:31:06.009Z,27.63
2023-02-11T21:33:29.656Z,29.50
2023-02-11T21:36:00.317Z,30.58
2023-02-11T21:38:24.419Z,28.70
2023-02-11T21:40:47.377Z,32.33
2023-02-11T21:43:10.270Z,31.13
2023-02-11T21:45:33.056Z,33.90
2023-02-11T21:47:55.855Z,30.25
2023-02-11T21:50:19.159Z,31.20
2023-02-11T21:52:41.862Z,30.30
2023-02-11T21:55:08.451Z,30.07
2023-02-11T21:57:31.509Z,31.13
2023-02-11T21:59:54.275Z,30.35
2023-02-11T22:02:17.090Z,28.58
2023-02-11T22:04:39.875Z,30.38
2023-02-11T22:07:05.682Z,26.43
2023-02-11T22:09:29.277Z,30.58
2023-02-11T22:11:53.094Z,29.60
2023-02-11T22:14:16.333Z,28.35
2023-02-11T22:16:39.012Z,26.67
2023-02-11T22:19:02.588Z,30.43
2023-02-11T22:21:26.720Z,30.38
2023-02-11T22:23:50.321Z,27.50
2023-02-11T22:26:16.486Z,25.65
2023-02-11T22:28:40.660Z,26.80
2023-02-11T22:31:03.388Z,27.07
2023-02-11T22:33:27.336Z,24.65
2023-02-11T22:35:57.522Z,28.83
2023-02-11T22:38:20.209Z,27.02
2023-02-11T22:40:43.737Z,27.00
2023-02-11T22:43:06.396Z,28.03
2023-02-11T22:45:29.011Z,28.83
2023-02-11T22:47:51.623Z,27.25
2023-02-11T22:50:14.197Z,27.95
2023-02-11T22:52:36.887Z,25.55
2023-02-11T22:55:00.493Z,28.07
2023-02-11T22:57:23.142Z,31.48
2023-02-11T22:59:45.971Z,26.55
2023-02-11T23:02:08.743Z,29.25
2023-02-11T23:04:31.673Z,27.48
2023-02-11T23:06:54.288Z,26.40
2023-02-11T23:09:17.132Z,26.48
2023-02-11T23:11:41.124Z,25.67
2023-02-11T23:14:05.209Z,26.83
2023-02-11T23:16:31.309Z,26.35
2023-02-11T23:18:54.400Z,23.63
2023-02-11T23:21:21.694Z,27.35
2023-02-11T23:23:45.457Z,25.90
2023-02-11T23:26:17.740Z,25.42
2023-02-11T23:28:42.393Z,26.10
2023-02-11T23:31:18.888Z,26.37
2023-02-11T23:33:41.959Z,24.50
2023-02-11T23:36:05.048Z,28.30
2023-02-11T23:38:27.703Z,24.15
2023-02-11T23:40:50.339Z,26.75
2023-02-11T23:43:13.040Z,25.67
2023-02-11T23:45:35.666Z,25.45
2023-02-11T23:48:00.006Z,25.30
2023-02-11T23:50:22.565Z,28.02
2023-02-11T23:52:46.471Z,20.70
2023-02-11T23:55:09.671Z,26.47
2023-02-11T23:57:33.181Z,24.00
2023-02-11T23:59:55.865Z,23.77
